createdAt,value
2024-02-07T00:00:35.516Z,3.75
2024-02-07T00:03:02.045Z,2.25
2024-02-07T00:05:28.564Z,3.05
2024-02-07T00:07:55.128Z,2.55
2024-02-07T00:10:21.656Z,6.43
2024-02-07T00:12:48.152Z,3.13
2024-02-07T00:15:14.687Z,4.93
2024-02-07T00:17:41.163Z,5.30
2024-02-07T00:20:07.922Z,3.75
2024-02-07T00:22:34.883Z,2.45
2024-02-07T00:25:01.315Z,3.17
2024-02-07T00:27:27.795Z,4.63
2024-02-07T00:29:54.254Z,2.38
2024-02-07T00:32:20.646Z,3.42
2024-02-07T00:34:47.129Z,3.72
2024-02-07T00:37:13.731Z,4.25
2024-02-07T00:39:40.253Z,4.72
2024-02-07T00:42:06.680Z,1.60
2024-02-07T00:44:33.099Z,2.45
2024-02-07T00:46:59.580Z,2.63
2024-02-07T00:49:26.300Z,2.95
2024-02-07T00:51:53.229Z,2.78
2024-02-07T00:54:20.179Z,3.97
2024-02-07T00:56:46.621Z,4.05
2024-02-07T00:59:13.884Z,3.50
2024-02-07T01:01:40.823Z,3.28
2024-02-07T01:04:07.355Z,2.30
2024-02-07T01:06:33.941Z,2.35
2024-02-07T01:09:00.361Z,2.63
2024-02-07T01:11:26.779Z,2.80
2024-02-07T01:13:53.322Z,2.30
2024-02-07T01:16:20.228Z,3.70
2024-02-07T01:18:46.824Z,4.13
2024-02-07T01:21:13.453Z,2.15
2024-02-07T01:23:44.239Z,1.88
2024-02-07T01:26:12.308Z,2.75
2024-02-07T01:28:38.767Z,4.38
2024-02-07T01:31:05.223Z,3.35
2024-02-07T01:33:31.708Z,4.78
2024-02-07T01:35:58.221Z,2.20
2024-02-07T01:38:24.605Z,6.22
2024-02-07T01:40:51.163Z,6.10
2024-02-07T01:43:18.393Z,2.33
2024-02-07T01:45:45.077Z,4.03
2024-02-07T01:48:11.850Z,3.38
2024-02-07T01:50:40.195Z,5.00
2024-02-07T01:53:07.962Z,2.30
2024-02-07T01:55:36.461Z,1.52
2024-02-07T01:58:04.833Z,1.55
2024-02-07T02:00:32.750Z,2.28
2024-02-07T02:03:02.357Z,3.80
2024-02-07T02:05:29.315Z,4.43
2024-02-07T02:07:56.134Z,2.35
2024-02-07T02:10:22.651Z,3.08
2024-02-07T02:12:49.278Z,6.60
2024-02-07T02:15:15.798Z,3.97
2024-02-07T02:17:42.877Z,6.28
2024-02-07T02:20:10.681Z,2.20
2024-02-07T02:22:48.416Z,4.18
2024-02-07T02:25:27.083Z,4.55
2024-02-07T02:27:53.612Z,7.70
2024-02-07T02:30:21.660Z,2.08
2024-02-07T02:32:51.186Z,2.05
2024-02-07T02:35:18.279Z,3.83
2024-02-07T02:37:46.157Z,3.10
2024-02-07T02:40:12.792Z,2.55
2024-02-07T02:42:40.035Z,2.97
2024-02-07T02:45:08.037Z,4.40
2024-02-07T02:47:34.473Z,2.47
2024-02-07T02:50:02.385Z,3.83
2024-02-07T02:52:30.217Z,2.65
2024-02-07T02:54:57.985Z,2.08
2024-02-07T02:57:24.930Z,2.80
2024-02-07T02:59:51.944Z,4.35
2024-02-07T03:02:21.433Z,2.15
2024-02-07T03:04:51.139Z,3.67
2024-02-07T03:07:38.013Z,3.13
2024-02-07T03:10:06.114Z,4.35
2024-02-07T03:12:37.084Z,1.98
2024-02-07T03:15:03.636Z,3.13
2024-02-07T03:17:30.055Z,3.15
2024-02-07T03:19:57.834Z,1.35
2024-02-07T03:22:24.497Z,3.72
2024-02-07T03:24:56.941Z,4.15
2024-02-07T03:27:24.916Z,2.40
2024-02-07T03:29:51.351Z,4.18
2024-02-07T03:32:21.038Z,2.28
2024-02-07T03:34:47.671Z,2.25
2024-02-07T03:37:14.151Z,2.72
2024-02-07T03:39:40.904Z,3.05
2024-02-07T03:42:09.177Z,3.63
2024-02-07T03:44:35.559Z,1.25
2024-02-07T03:47:02.001Z,4.70
2024-02-07T03:49:28.807Z,2.95
2024-02-07T03:51:55.300Z,3.00
2024-02-07T03:54:21.753Z,2.40
2024-02-07T03:56:48.186Z,2.20
2024-02-07T03:59:14.587Z,2.00
2024-02-07T04:01:41.234Z,2.42
2024-02-07T04:04:09.579Z,1.90
2024-02-07T04:06:37.317Z,3.55
2024-02-07T04:09:06.807Z,3.22
2024-02-07T04:11:33.536Z,3.70
2024-02-07T04:13:59.966Z,2.97
2024-02-07T04:16:45.273Z,5.35
2024-02-07T04:19:30.205Z,6.72
2024-02-07T04:22:15.206Z,3.03
2024-02-07T04:25:00.537Z,2.20
2024-02-07T04:27:45.948Z,2.38
2024-02-07T04:30:31.009Z,2.83
2024-02-07T04:33:16.037Z,6.57
2024-02-07T04:36:01.236Z,2.95
2024-02-07T04:38:46.309Z,1.02
2024-02-07T04:41:31.257Z,3.28
2024-02-07T04:44:16.109Z,4.78
2024-02-07T04:47:01.131Z,2.50
2024-02-07T04:49:46.556Z,4.88
2024-02-07T04:52:31.991Z,1.92
2024-02-07T04:55:17.107Z,1.10
2024-02-07T04:58:02.275Z,2.53
2024-02-07T05:00:47.432Z,1.67
2024-02-07T05:03:32.767Z,2.33
2024-02-07T05:06:18.206Z,3.45
2024-02-07T05:09:03.510Z,2.53
2024-02-07T05:11:48.386Z,2.45
2024-02-07T05:14:33.292Z,3.00
2024-02-07T05:16:59.752Z,1.63
2024-02-07T05:19:26.265Z,5.22
2024-02-07T05:21:52.726Z,2.75
2024-02-07T05:24:19.112Z,3.08
2024-02-07T05:26:45.538Z,3.72
2024-02-07T05:29:16.896Z,4.22
2024-02-07T05:31:43.422Z,3.00
2024-02-07T05:34:10.227Z,2.08
2024-02-07T05:36:36.714Z,2.60
2024-02-07T05:39:03.518Z,1.90
2024-02-07T05:41:29.919Z,3.33
2024-02-07T05:43:56.558Z,2.10
2024-02-07T05:46:23.076Z,2.15
2024-02-07T05:48:50.859Z,2.00
2024-02-07T05:51:21.111Z,3.78
2024-02-07T05:53:47.770Z,3.30
2024-02-07T05:56:14.239Z,2.00
2024-02-07T05:58:41.290Z,2.78
2024-02-07T06:01:08.702Z,3.42
2024-02-07T06:03:36.406Z,3.85
2024-02-07T06:06:05.388Z,4.18
2024-02-07T06:08:32.170Z,2.13
2024-02-07T06:11:00.432Z,2.40
2024-02-07T06:13:27.312Z,1.80
2024-02-07T06:15:53.755Z,2.95
2024-02-07T06:18:20.437Z,1.95
2024-02-07T06:20:47.024Z,3.15
2024-02-07T06:23:13.820Z,1.88
2024-02-07T06:25:40.318Z,2.90
2024-02-07T06:28:06.779Z,2.35
2024-02-07T06:30:33.180Z,2.05
2024-02-07T06:32:59.701Z,1.50
2024-02-07T06:35:26.749Z,1.60
2024-02-07T06:37:54.456Z,2.38
2024-02-07T06:40:20.984Z,1.95
2024-02-07T06:42:47.476Z,3.42
2024-02-07T06:45:13.977Z,1.95
2024-02-07T06:47:41.042Z,2.08
2024-02-07T06:50:07.797Z,1.95
2024-02-07T06:52:34.474Z,1.60
2024-02-07T06:55:01.944Z,4.75
2024-02-07T06:57:28.586Z,1.27
2024-02-07T06:59:55.015Z,1.20
2024-02-07T07:02:21.446Z,2.03
2024-02-07T07:04:47.954Z,1.77
2024-02-07T07:07:14.467Z,2.25
2024-02-07T07:09:40.902Z,1.83
2024-02-07T07:12:07.500Z,1.98
2024-02-07T07:14:33.951Z,1.27
2024-02-07T07:17:00.419Z,1.30
2024-02-07T07:19:27.034Z,3.92
2024-02-07T07:21:53.521Z,2.50
2024-02-07T07:24:19.929Z,2.47
2024-02-07T07:26:46.329Z,1.60
2024-02-07T07:29:12.774Z,2.38
2024-02-07T07:31:39.279Z,2.97
2024-02-07T07:34:05.793Z,2.30
2024-02-07T07:36:32.293Z,1.77
2024-02-07T07:38:58.713Z,1.58
2024-02-07T07:41:25.196Z,4.70
2024-02-07T07:43:53.315Z,1.77
2024-02-07T07:46:20.123Z,2.10
2024-02-07T07:48:46.675Z,3.25
2024-02-07T07:51:14.288Z,4.45
2024-02-07T07:53:40.669Z,2.35
2024-02-07T07:56:07.315Z,2.28
2024-02-07T07:58:44.761Z,1.08
2024-02-07T08:01:28.919Z,5.85
2024-02-07T08:03:55.835Z,1.40
2024-02-07T08:06:23.457Z,2.80
2024-02-07T08:08:50.077Z,2.38
2024-02-07T08:11:16.577Z,3.10
2024-02-07T08:13:43.017Z,3.83
2024-02-07T08:16:09.511Z,1.45
2024-02-07T08:18:36.422Z,1.77
2024-02-07T08:21:03.800Z,2.30
2024-02-07T08:23:30.430Z,2.78
2024-02-07T08:25:56.927Z,2.60
2024-02-07T08:28:23.444Z,1.75
2024-02-07T08:30:49.874Z,2.15
2024-02-07T08:33:16.511Z,2.75
2024-02-07T08:35:43.175Z,1.00
2024-02-07T08:38:09.796Z,1.10
2024-02-07T08:40:36.914Z,0.50
2024-02-07T08:43:07.687Z,0.77
2024-02-07T08:45:35.454Z,1.02
2024-02-07T08:48:02.065Z,2.60
2024-02-07T08:50:28.533Z,2.05
2024-02-07T08:52:55.142Z,1.92
2024-02-07T08:55:21.607Z,0.60
2024-02-07T08:57:48.038Z,0.80
2024-02-07T09:00:14.642Z,1.98
2024-02-07T09:02:41.042Z,1.20
2024-02-07T09:05:07.770Z,1.05
2024-02-07T09:07:35.179Z,0.77
2024-02-07T09:10:02.398Z,1.63
2024-02-07T09:12:29.337Z,1.10
2024-02-07T09:14:59.566Z,0.98
2024-02-07T09:17:26.128Z,1.60
2024-02-07T09:19:53.505Z,6.15
2024-02-07T09:22:20.032Z,1.73
2024-02-07T09:24:46.563Z,1.60
2024-02-07T09:27:12.971Z,1.10
2024-02-07T09:29:39.447Z,1.20
2024-02-07T09:32:06.021Z,1.20
2024-02-07T09:34:32.715Z,1.30
2024-02-07T09:36:59.382Z,1.38
2024-02-07T09:39:25.783Z,1.45
2024-02-07T09:41:52.579Z,2.78
2024-02-07T09:44:20.140Z,1.45
2024-02-07T09:46:46.758Z,1.38
2024-02-07T09:49:14.542Z,0.95
2024-02-07T09:51:41.648Z,1.52
2024-02-07T09:54:11.809Z,3.65
2024-02-07T09:56:38.637Z,1.40
2024-02-07T09:59:05.731Z,1.00
2024-02-07T10:01:33.751Z,1.20
2024-02-07T10:04:01.979Z,1.23
2024-02-07T10:06:28.943Z,1.25
2024-02-07T10:08:55.610Z,0.75
2024-02-07T10:11:22.383Z,2.35
2024-02-07T10:13:49.017Z,0.32
2024-02-07T10:16:15.737Z,0.85
2024-02-07T10:18:44.503Z,0.70
2024-02-07T10:21:12.146Z,0.82
2024-02-07T10:23:38.568Z,0.47
2024-02-07T10:26:05.106Z,0.98
2024-02-07T10:28:32.095Z,1.30
2024-02-07T10:31:04.985Z,0.40
2024-02-07T10:33:41.220Z,1.55
2024-02-07T10:36:09.455Z,1.52
2024-02-07T10:38:36.574Z,0.75
2024-02-07T10:41:03.655Z,0.85
2024-02-07T10:43:41.479Z,1.58
2024-02-07T10:46:11.663Z,0.57
2024-02-07T10:48:38.793Z,1.77
2024-02-07T10:51:05.645Z,1.40
2024-02-07T10:53:32.551Z,2.08
2024-02-07T10:56:00.714Z,1.40
2024-02-07T10:58:28.531Z,1.40
2024-02-07T11:00:55.926Z,1.27
2024-02-07T11:03:23.429Z,1.70
2024-02-07T11:05:50.449Z,1.83
2024-02-07T11:08:17.701Z,1.42
2024-02-07T11:10:44.722Z,1.27
2024-02-07T11:13:11.920Z,0.50
2024-02-07T11:15:38.721Z,2.30
2024-02-07T11:18:06.864Z,3.20
2024-02-07T11:20:33.748Z,3.00
2024-02-07T11:23:03.420Z,1.92
2024-02-07T11:25:30.860Z,1.58
2024-02-07T11:27:57.763Z,2.40
2024-02-07T11:30:24.329Z,1.90
2024-02-07T11:32:52.627Z,4.07
2024-02-07T11:35:20.037Z,1.90
2024-02-07T11:37:49.299Z,2.50
2024-02-07T11:40:15.870Z,2.17
2024-02-07T11:42:42.802Z,2.80
2024-02-07T11:45:13.177Z,4.03
2024-02-07T11:47:44.555Z,6.45
2024-02-07T11:50:15.397Z,3.47
2024-02-07T11:52:42.348Z,3.88
2024-02-07T11:55:08.854Z,3.30
2024-02-07T11:57:35.432Z,2.95
2024-02-07T12:00:03.092Z,3.33
2024-02-07T12:02:29.626Z,4.15
2024-02-07T12:04:57.426Z,3.38
2024-02-07T12:07:24.226Z,1.48
2024-02-07T12:09:51.325Z,6.20
2024-02-07T12:12:17.806Z,3.03
2024-02-07T12:14:44.536Z,4.50
2024-02-07T12:17:11.089Z,3.75
2024-02-07T12:19:37.979Z,3.67
2024-02-07T12:22:04.667Z,3.35
2024-02-07T12:24:32.483Z,4.43
2024-02-07T12:27:08.941Z,5.13
2024-02-07T12:29:35.812Z,5.93
2024-02-07T12:32:02.596Z,5.68
2024-02-07T12:34:29.312Z,3.95
2024-02-07T12:36:55.839Z,5.10
2024-02-07T12:39:22.623Z,3.42
2024-02-07T12:41:50.229Z,2.63
2024-02-07T12:44:17.213Z,3.63
2024-02-07T12:46:44.110Z,4.47
2024-02-07T12:49:10.579Z,6.13
2024-02-07T12:51:37.080Z,4.88
2024-02-07T12:54:03.512Z,3.35
2024-02-07T12:56:29.914Z,3.92
2024-02-07T12:58:57.044Z,5.15
2024-02-07T13:01:27.399Z,2.55
2024-02-07T13:03:54.874Z,2.00
2024-02-07T13:06:21.745Z,4.50
2024-02-07T13:08:49.041Z,3.03
2024-02-07T13:11:15.877Z,4.15
2024-02-07T13:13:42.406Z,3.17
2024-02-07T13:16:10.104Z,4.97
2024-02-07T13:18:37.001Z,1.70
2024-02-07T13:21:06.792Z,3.00
2024-02-07T13:23:34.913Z,7.07
2024-02-07T13:26:02.511Z,10.77
2024-02-07T13:28:29.198Z,1.40
2024-02-07T13:30:56.272Z,2.90
2024-02-07T13:33:23.791Z,4.20
2024-02-07T13:35:50.289Z,2.17
2024-02-07T13:38:26.707Z,1.70
2024-02-07T13:40:57.980Z,2.55
2024-02-07T13:43:24.586Z,3.97
2024-02-07T13:45:50.995Z,2.45
2024-02-07T13:48:20.245Z,1.88
2024-02-07T13:50:49.566Z,1.88
2024-02-07T13:53:16.805Z,2.38
2024-02-07T13:55:43.273Z,3.10
2024-02-07T13:58:09.673Z,2.47
2024-02-07T14:00:36.148Z,2.08
2024-02-07T14:03:02.687Z,2.35
2024-02-07T14:05:29.150Z,2.80
2024-02-07T14:07:56.585Z,3.25
2024-02-07T14:10:23.122Z,1.88
2024-02-07T14:12:49.577Z,4.15
2024-02-07T14:15:16.051Z,1.60
2024-02-07T14:17:42.572Z,3.13
2024-02-07T14:20:09.383Z,2.47
2024-02-07T14:22:37.283Z,5.68
2024-02-07T14:25:10.100Z,1.63
2024-02-07T14:27:36.478Z,2.70
2024-02-07T14:30:02.910Z,5.47
2024-02-07T14:32:29.359Z,2.58
2024-02-07T14:34:55.935Z,4.18
2024-02-07T14:37:22.570Z,1.45
2024-02-07T14:39:48.969Z,5.57
2024-02-07T14:42:15.367Z,1.50
2024-02-07T14:44:41.794Z,2.40
2024-02-07T14:47:08.302Z,2.15
2024-02-07T14:49:35.125Z,3.00
2024-02-07T14:52:01.710Z,1.63
2024-02-07T14:54:28.161Z,2.40
2024-02-07T14:56:56.372Z,2.00
2024-02-07T14:59:22.903Z,1.77
2024-02-07T15:01:49.479Z,2.15
2024-02-07T15:04:16.158Z,1.35
2024-02-07T15:06:43.017Z,1.50
2024-02-07T15:09:09.504Z,1.98
2024-02-07T15:11:36.141Z,3.08
2024-02-07T15:14:02.883Z,3.13
2024-02-07T15:16:36.509Z,2.53
2024-02-07T15:19:03.192Z,3.67
2024-02-07T15:21:29.762Z,2.70
2024-02-07T15:23:56.203Z,3.28
2024-02-07T15:26:22.874Z,3.00
2024-02-07T15:28:49.337Z,2.85
2024-02-07T15:31:15.819Z,2.45
2024-02-07T15:33:44.845Z,6.15
2024-02-07T15:36:11.728Z,2.85
2024-02-07T15:38:38.355Z,4.05
2024-02-07T15:41:05.163Z,3.35
2024-02-07T15:43:31.716Z,5.13
2024-02-07T15:45:58.663Z,6.47
2024-02-07T15:48:25.181Z,5.13
2024-02-07T15:50:52.412Z,4.35
2024-02-07T15:53:18.882Z,3.95
2024-02-07T15:55:45.313Z,4.97
2024-02-07T15:58:11.762Z,4.03
2024-02-07T16:00:38.390Z,4.28
2024-02-07T16:03:05.141Z,4.03
2024-02-07T16:05:35.149Z,3.22
2024-02-07T16:08:04.126Z,5.03
2024-02-07T16:10:30.688Z,5.47
2024-02-07T16:12:57.149Z,6.75
2024-02-07T16:15:24.471Z,2.78
2024-02-07T16:17:50.985Z,3.22
2024-02-07T16:20:17.659Z,4.95
2024-02-07T16:22:45.352Z,4.13
2024-02-07T16:25:11.781Z,7.18
2024-02-07T16:27:38.197Z,3.65
2024-02-07T16:30:05.734Z,3.22
2024-02-07T16:32:32.135Z,4.40
2024-02-07T16:34:58.795Z,6.40
2024-02-07T16:37:25.294Z,4.45
2024-02-07T16:39:51.965Z,4.63
2024-02-07T16:42:18.400Z,3.60
2024-02-07T16:44:44.885Z,7.45
2024-02-07T16:47:11.406Z,5.15
2024-02-07T16:49:37.939Z,4.38
2024-02-07T16:52:04.595Z,6.90
2024-02-07T16:54:31.006Z,5.53
2024-02-07T16:56:57.415Z,4.05
2024-02-07T16:59:23.871Z,7.15
2024-02-07T17:01:50.486Z,5.85
2024-02-07T17:04:17.599Z,6.60
2024-02-07T17:06:44.157Z,9.60
2024-02-07T17:09:11.397Z,8.68
2024-02-07T17:11:38.112Z,5.55
2024-02-07T17:14:04.660Z,8.95
2024-02-07T17:16:31.147Z,3.22
2024-02-07T17:18:57.809Z,3.97
2024-02-07T17:21:24.231Z,3.05
2024-02-07T17:23:50.679Z,7.00
2024-02-07T17:26:18.502Z,31.77
2024-02-07T17:28:45.041Z,4.90
2024-02-07T17:31:11.456Z,6.85
2024-02-07T17:33:38.054Z,6.82
2024-02-07T17:36:04.868Z,3.97
2024-02-07T17:38:31.253Z,8.88
2024-02-07T17:40:57.731Z,6.10
2024-02-07T17:43:24.159Z,9.25
2024-02-07T17:45:50.649Z,7.82
2024-02-07T17:48:19.373Z,8.80
2024-02-07T17:50:45.920Z,6.78
2024-02-07T17:53:12.450Z,7.72
2024-02-07T17:55:42.875Z,7.43
2024-02-07T17:58:10.870Z,8.80
2024-02-07T18:00:37.282Z,7.00
2024-02-07T18:03:03.809Z,7.28
2024-02-07T18:05:30.616Z,9.20
2024-02-07T18:07:57.968Z,12.05
2024-02-07T18:10:24.719Z,5.07
2024-02-07T18:12:53.663Z,6.95
2024-02-07T18:15:20.114Z,8.23
2024-02-07T18:17:46.603Z,11.70
2024-02-07T18:20:13.448Z,9.50
2024-02-07T18:22:40.283Z,7.35
2024-02-07T18:25:07.043Z,44.28
2024-02-07T18:27:33.990Z,9.25
2024-02-07T18:30:00.423Z,11.18
2024-02-07T18:32:27.896Z,9.98
2024-02-07T18:34:54.487Z,6.80
2024-02-07T18:37:21.053Z,9.98
2024-02-07T18:39:47.526Z,7.30
2024-02-07T18:42:13.925Z,5.50
2024-02-07T18:44:40.358Z,7.32
2024-02-07T18:47:06.833Z,8.00
2024-02-07T18:49:36.143Z,8.48
2024-02-07T18:52:02.844Z,7.90
2024-02-07T18:54:29.224Z,8.43
2024-02-07T18:56:55.736Z,6.10
2024-02-07T18:59:23.490Z,9.40
2024-02-07T19:01:50.370Z,10.07
2024-02-07T19:04:17.017Z,8.25
2024-02-07T19:06:43.538Z,8.82
2024-02-07T19:09:10.200Z,7.82
2024-02-07T19:11:36.621Z,5.97
2024-02-07T19:14:03.145Z,7.45
2024-02-07T19:16:30.866Z,8.23
2024-02-07T19:18:57.509Z,7.45
2024-02-07T19:21:24.770Z,9.18
2024-02-07T19:23:51.187Z,8.27
2024-02-07T19:26:17.857Z,7.60
2024-02-07T19:28:44.316Z,8.20
2024-02-07T19:31:12.053Z,8.65
2024-02-07T19:33:39.281Z,9.25
2024-02-07T19:36:05.918Z,8.55
2024-02-07T19:38:32.970Z,10.68
2024-02-07T19:40:59.584Z,11.27
2024-02-07T19:43:26.262Z,8.45
2024-02-07T19:45:53.176Z,9.43
2024-02-07T19:48:20.082Z,9.93
2024-02-07T19:50:46.683Z,9.63
2024-02-07T19:53:15.490Z,7.35
2024-02-07T19:55:42.033Z,13.38
2024-02-07T19:58:10.401Z,10.05
2024-02-07T20:00:36.912Z,12.77
2024-02-07T20:03:03.793Z,14.45
2024-02-07T20:05:30.323Z,8.10
2024-02-07T20:07:56.854Z,14.65
2024-02-07T20:10:23.339Z,8.77
2024-02-07T20:12:49.773Z,10.32
2024-02-07T20:15:17.567Z,8.80
2024-02-07T20:17:45.229Z,6.93
2024-02-07T20:20:12.070Z,9.23
2024-02-07T20:22:38.539Z,7.72
2024-02-07T20:25:05.102Z,7.45
2024-02-07T20:27:31.757Z,4.88
2024-02-07T20:30:01.849Z,6.55
2024-02-07T20:32:28.936Z,7.97
2024-02-07T20:34:55.494Z,6.47
2024-02-07T20:37:25.345Z,8.07
2024-02-07T20:39:52.345Z,5.35
2024-02-07T20:42:18.813Z,6.20
2024-02-07T20:44:45.783Z,7.43
2024-02-07T20:47:12.293Z,6.18
2024-02-07T20:49:38.826Z,4.72
2024-02-07T20:52:05.528Z,5.53
2024-02-07T20:54:34.657Z,6.53
2024-02-07T20:57:01.066Z,6.82
2024-02-07T20:59:27.542Z,8.88
2024-02-07T21:01:54.068Z,7.85
2024-02-07T21:04:20.623Z,8.13
2024-02-07T21:06:47.823Z,7.68
2024-02-07T21:09:14.285Z,8.93
2024-02-07T21:11:40.703Z,5.22
2024-02-07T21:14:07.300Z,7.13
2024-02-07T21:16:34.911Z,10.52
2024-02-07T21:19:01.506Z,7.13
2024-02-07T21:21:28.624Z,8.45
2024-02-07T21:23:55.118Z,6.82
2024-02-07T21:26:21.530Z,7.28
2024-02-07T21:28:47.985Z,8.00
2024-02-07T21:31:14.520Z,6.93
2024-02-07T21:33:41.552Z,9.07
2024-02-07T21:36:08.305Z,8.52
2024-02-07T21:38:34.852Z,7.95
2024-02-07T21:41:01.625Z,12.10
2024-02-07T21:43:28.217Z,8.93
2024-02-07T21:45:54.711Z,12.48
2024-02-07T21:48:21.169Z,8.52
2024-02-07T21:50:47.623Z,10.45
2024-02-07T21:53:14.177Z,9.35
2024-02-07T21:55:40.914Z,8.48
2024-02-07T21:58:10.108Z,10.60
2024-02-07T22:00:36.541Z,10.57
2024-02-07T22:03:03.104Z,10.50
2024-02-07T22:05:29.946Z,8.23
2024-02-07T22:07:56.525Z,8.30
2024-02-07T22:10:23.298Z,9.15
2024-02-07T22:12:49.767Z,9.27
2024-02-07T22:15:16.224Z,8.57
2024-02-07T22:17:42.864Z,9.75
2024-02-07T22:20:10.101Z,9.88
2024-02-07T22:22:36.861Z,10.10
2024-02-07T22:25:06.898Z,10.20
2024-02-07T22:27:36.931Z,13.30
2024-02-07T22:30:04.399Z,12.25
2024-02-07T22:32:30.937Z,12.90
2024-02-07T22:34:57.355Z,8.60
2024-02-07T22:37:25.743Z,10.82
2024-02-07T22:39:52.524Z,7.45
2024-02-07T22:42:18.927Z,7.57
2024-02-07T22:44:45.356Z,13.27
2024-02-07T22:47:12.910Z,9.27
2024-02-07T22:49:39.679Z,10.75
2024-02-07T22:52:06.435Z,10.90
2024-02-07T22:54:32.862Z,9.02
2024-02-07T22:56:59.303Z,13.57
2024-02-07T22:59:25.741Z,8.75
2024-02-07T23:01:52.235Z,10.48
2024-02-07T23:04:18.930Z,8.02
2024-02-07T23:06:46.541Z,9.85
2024-02-07T23:09:13.052Z,7.93
2024-02-07T23:11:39.518Z,11.38
2024-02-07T23:14:06.061Z,13.80
2024-02-07T23:16:32.647Z,7.93
2024-02-07T23:18:59.135Z,7.72
2024-02-07T23:21:25.644Z,7.68
2024-02-07T23:23:52.299Z,13.45
2024-02-07T23:26:18.668Z,8.00
2024-02-07T23:28:45.071Z,12.07
2024-02-07T23:31:11.546Z,10.00
2024-02-07T23:33:37.963Z,7.47
2024-02-07T23:36:04.542Z,10.55
2024-02-07T23:38:31.196Z,11.82
2024-02-07T23:40:57.635Z,8.40
2024-02-07T23:43:24.238Z,10.02
2024-02-07T23:45:50.700Z,8.95
2024-02-07T23:48:17.905Z,8.75
2024-02-07T23:50:44.527Z,8.90
2024-02-07T23:53:11.008Z,14.52
2024-02-07T23:55:37.491Z,9.43
2024-02-07T23:58:03.940Z,9.48
